createdAt,value
2018-03-28T00:01:06.516Z,6.27
2018-03-28T00:02:06.759Z,6.24
2018-03-28T00:03:07.173Z,6.27
2018-03-28T00:04:06.463Z,6.27
2018-03-28T00:05:06.853Z,6.28
2018-03-28T00:06:07.528Z,6.28
2018-03-28T00:07:06.986Z,6.28
2018-03-28T00:08:06.585Z,6.28
2018-03-28T00:09:07.106Z,6.27
2018-03-28T00:10:07.572Z,6.28
2018-03-28T00:11:07.396Z,6.28
2018-03-28T00:12:06.714Z,6.28
2018-03-28T00:13:06.986Z,6.27
2018-03-28T00:14:07.056Z,6.26
2018-03-28T00:15:06.686Z,6.26
2018-03-28T00:16:07.443Z,6.27
2018-03-28T00:17:06.853Z,6.28
2018-03-28T00:18:07.209Z,6.28
2018-03-28T00:19:28.006Z,6.27
2018-03-28T00:20:28.321Z,6.28
2018-03-28T00:21:28.834Z,6.28
2018-03-28T00:22:48.666Z,6.27
2018-03-28T00:23:49.137Z,6.26
2018-03-28T00:24:50.147Z,6.26
2018-03-28T00:25:49.358Z,6.22
2018-03-28T00:26:48.777Z,6.22
2018-03-28T00:27:49.663Z,6.24
2018-03-28T00:28:49.286Z,6.22
2018-03-28T00:29:49.981Z,6.24
2018-03-28T00:39:37.241Z,6.22
2018-03-28T00:40:37.367Z,6.24
2018-03-28T00:41:37.458Z,6.22
2018-03-28T00:42:37.579Z,6.22
2018-03-28T00:43:37.485Z,6.24
2018-03-28T00:44:37.632Z,6.22
2018-03-28T00:45:37.712Z,6.22
2018-03-28T00:46:37.538Z,6.22
2018-03-28T00:47:37.527Z,6.24
2018-03-28T00:48:37.459Z,6.22
2018-03-28T00:49:37.472Z,6.24
2018-03-28T00:50:37.445Z,6.24
2018-03-28T00:51:37.421Z,6.26
2018-03-28T00:52:58.055Z,6.24
2018-03-28T00:53:59.094Z,6.24
2018-03-28T00:54:59.121Z,6.26
2018-03-28T00:55:59.112Z,6.24
2018-03-28T00:56:59.013Z,6.24
2018-03-28T00:57:58.919Z,6.26
2018-03-28T00:58:58.895Z,6.27
2018-03-28T00:59:59.110Z,6.28
2018-03-28T01:00:59.047Z,6.30
2018-03-28T01:01:58.817Z,6.30
2018-03-28T01:03:19.081Z,6.28
2018-03-28T01:04:19.963Z,6.30
2018-03-28T01:05:40.296Z,6.30
2018-03-28T01:06:41.158Z,6.33
2018-03-28T01:07:41.252Z,6.33
2018-03-28T01:08:41.192Z,6.31
2018-03-28T01:09:41.274Z,6.31
2018-03-28T01:10:41.402Z,6.31
2018-03-28T01:12:01.356Z,6.30
2018-03-28T01:13:01.363Z,6.30
2018-03-28T01:14:01.529Z,6.30
2018-03-28T01:15:01.574Z,6.30
2018-03-28T01:16:01.480Z,6.30
2018-03-28T01:17:01.387Z,6.28
2018-03-28T01:18:01.564Z,6.28
2018-03-28T01:19:01.604Z,6.28
2018-03-28T01:20:01.666Z,6.28
2018-03-28T01:21:01.618Z,6.30
2018-03-28T01:22:01.665Z,6.28
2018-03-28T01:23:01.602Z,6.30
2018-03-28T01:24:01.724Z,6.30
2018-03-28T01:25:01.756Z,6.28
2018-03-28T01:26:01.843Z,6.28
2018-03-28T01:27:42.085Z,6.28
2018-03-28T01:28:42.060Z,6.30
2018-03-28T01:29:42.946Z,6.30
2018-03-28T01:30:42.129Z,6.28
2018-03-28T01:32:01.924Z,6.28
2018-03-28T01:33:02.776Z,6.27
2018-03-28T01:34:23.671Z,6.28
2018-03-28T01:35:23.552Z,6.27
2018-03-28T01:36:24.405Z,6.27
2018-03-28T01:37:24.321Z,6.28
2018-03-28T01:38:24.170Z,6.30
2018-03-28T01:44:34.589Z,6.30
2018-03-28T01:45:56.230Z,6.30
2018-03-28T01:46:56.979Z,6.28
2018-03-28T01:48:20.158Z,6.28
2018-03-28T01:49:42.153Z,6.28
2018-03-28T01:50:42.615Z,6.28
2018-03-28T01:51:42.519Z,6.27
2018-03-28T01:52:42.347Z,6.28
2018-03-28T01:53:42.647Z,6.27
2018-03-28T01:54:42.610Z,6.26
2018-03-28T01:55:42.029Z,6.26
2018-03-28T01:56:42.477Z,6.27
2018-03-28T01:57:42.725Z,6.27
2018-03-28T01:58:42.431Z,6.27
2018-03-28T01:59:43.248Z,6.27
2018-03-28T02:00:42.897Z,6.27
2018-03-28T02:01:42.485Z,6.28
2018-03-28T02:03:24.946Z,6.28
2018-03-28T02:04:25.163Z,6.28
2018-03-28T02:05:24.795Z,6.28
2018-03-28T02:06:25.597Z,6.30
2018-03-28T02:07:25.774Z,6.28
2018-03-28T02:08:25.199Z,6.28
2018-03-28T02:10:06.571Z,6.28
2018-03-28T02:11:07.408Z,6.30
2018-03-28T02:12:07.439Z,6.30
2018-03-28T02:13:07.326Z,6.28
2018-03-28T02:14:26.759Z,6.30
2018-03-28T02:15:27.353Z,6.30
2018-03-28T02:16:27.871Z,6.33
2018-03-28T02:17:27.249Z,6.33
2018-03-28T02:18:27.883Z,6.35
2018-03-28T02:19:27.258Z,6.33
2018-03-28T02:20:27.656Z,6.35
2018-03-28T02:21:27.456Z,6.36
2018-03-28T02:22:28.133Z,6.36
2018-03-28T02:23:48.062Z,6.36
2018-03-28T02:24:48.580Z,6.36
2018-03-28T02:25:48.128Z,6.36
2018-03-28T02:26:49.042Z,6.36
2018-03-28T02:27:48.452Z,6.36
2018-03-28T02:28:49.263Z,6.38
2018-03-28T02:29:48.701Z,6.39
2018-03-28T02:30:48.212Z,6.39
2018-03-28T02:31:48.660Z,6.42
2018-03-28T02:32:48.192Z,6.44
2018-03-28T02:33:48.541Z,6.42
2018-03-28T02:34:48.908Z,6.45
2018-03-28T02:35:48.248Z,6.45
2018-03-28T02:36:48.904Z,6.45
2018-03-28T02:37:48.569Z,6.48
2018-03-28T02:38:49.333Z,6.57
2018-03-28T02:39:49.108Z,6.59
2018-03-28T02:41:09.848Z,6.67
2018-03-28T02:42:10.369Z,6.74
2018-03-28T02:43:10.758Z,6.75
2018-03-28T02:44:10.040Z,6.78
2018-03-28T02:45:31.254Z,6.75
2018-03-28T02:46:31.557Z,6.74
2018-03-28T02:47:52.711Z,6.69
2018-03-28T02:50:15.709Z,6.63
2018-03-28T02:51:16.391Z,6.60
2018-03-28T02:52:16.867Z,6.57
2018-03-28T02:53:16.201Z,6.59
2018-03-28T02:54:15.795Z,6.59
2018-03-28T02:55:16.377Z,6.59
2018-03-28T02:56:16.184Z,6.60
2018-03-28T02:57:16.938Z,6.57
2018-03-28T02:58:16.610Z,6.57
2018-03-28T02:59:16.399Z,6.59
2018-03-28T03:00:15.999Z,6.57
2018-03-28T03:01:16.430Z,6.59
2018-03-28T03:02:16.237Z,6.59
2018-03-28T03:03:17.017Z,6.59
2018-03-28T03:04:16.575Z,6.57
2018-03-28T03:05:37.437Z,6.56
2018-03-28T03:06:38.288Z,6.56
2018-03-28T03:07:37.818Z,6.56
2018-03-28T03:08:58.700Z,6.51
2018-03-28T03:09:59.365Z,6.49
2018-03-28T03:10:58.724Z,6.49
2018-03-28T03:11:59.516Z,6.48
2018-03-28T03:12:59.429Z,6.48
2018-03-28T03:14:20.081Z,6.46
2018-03-28T03:15:20.732Z,6.48
2018-03-28T03:16:20.347Z,6.48
2018-03-28T03:17:21.080Z,6.49
2018-03-28T03:18:20.586Z,6.49
2018-03-28T03:19:20.302Z,6.48
2018-03-28T03:20:21.118Z,6.46
2018-03-28T03:21:20.686Z,6.48
2018-03-28T03:22:20.249Z,6.49
2018-03-28T03:23:20.889Z,6.49
2018-03-28T03:24:20.537Z,6.46
2018-03-28T03:25:20.118Z,6.45
2018-03-28T03:26:20.759Z,6.46
2018-03-28T03:27:20.467Z,6.46
2018-03-28T03:28:20.872Z,6.48
2018-03-28T03:29:20.389Z,6.48
2018-03-28T03:31:03.785Z,6.49
2018-03-28T03:32:45.679Z,6.48
2018-03-28T03:33:46.339Z,6.45
2018-03-28T03:34:45.857Z,6.45
2018-03-28T03:35:46.173Z,6.44
2018-03-28T03:36:46.449Z,6.42
2018-03-28T03:38:07.040Z,6.41
2018-03-28T03:39:07.452Z,6.38
2018-03-28T03:40:08.105Z,6.39
2018-03-28T03:41:07.565Z,6.38
2018-03-28T03:42:07.953Z,6.38
2018-03-28T03:43:07.178Z,6.38
2018-03-28T03:44:07.738Z,6.36
2018-03-28T03:45:28.042Z,6.39
2018-03-28T03:46:50.844Z,6.39
2018-03-28T03:47:51.022Z,6.38
2018-03-28T03:49:11.062Z,6.41
2018-03-28T03:50:31.956Z,6.39
2018-03-28T03:51:32.661Z,6.38
2018-03-28T03:52:32.101Z,6.38
2018-03-28T03:53:32.544Z,6.38
2018-03-28T03:54:32.951Z,6.39
2018-03-28T03:55:32.755Z,6.41
2018-03-28T03:56:32.658Z,6.41
2018-03-28T03:57:33.104Z,6.42
2018-03-28T03:58:32.782Z,6.44
2018-03-28T03:59:32.001Z,6.44
2018-03-28T04:00:32.283Z,6.42
2018-03-28T04:01:32.821Z,6.44
2018-03-28T04:02:32.855Z,6.44
2018-03-28T04:03:53.149Z,6.44
2018-03-28T04:04:53.823Z,6.48
2018-03-28T04:05:53.291Z,6.45
2018-03-28T04:06:53.890Z,6.44
2018-03-28T04:07:53.703Z,6.42
2018-03-28T04:08:53.664Z,6.42
2018-03-28T04:09:53.409Z,6.42
2018-03-28T04:10:53.798Z,6.42
2018-03-28T04:11:53.233Z,6.42
2018-03-28T04:12:53.636Z,6.44
2018-03-28T04:14:14.018Z,6.45
2018-03-28T04:15:14.810Z,6.46
2018-03-28T04:16:14.395Z,6.46
2018-03-28T04:17:14.640Z,6.45
2018-03-28T04:18:14.484Z,6.46
2018-03-28T04:20:00.753Z,6.45
2018-03-28T04:21:01.126Z,6.42
2018-03-28T04:22:22.823Z,6.44
2018-03-28T04:23:22.192Z,6.42
2018-03-28T04:24:42.790Z,6.42
2018-03-28T04:25:43.356Z,6.42
2018-03-28T04:26:43.112Z,6.42
2018-03-28T04:27:43.964Z,6.42
2018-03-28T04:28:43.163Z,6.45
2018-03-28T04:29:43.821Z,6.45
2018-03-28T04:30:43.551Z,6.46
2018-03-28T04:31:43.074Z,6.45
2018-03-28T04:32:43.456Z,6.45
2018-03-28T04:34:03.995Z,6.44
2018-03-28T04:35:04.528Z,6.46
2018-03-28T04:36:25.217Z,6.46
2018-03-28T04:37:25.792Z,6.46
2018-03-28T04:38:25.176Z,6.46
2018-03-28T04:39:25.862Z,6.46
2018-03-28T04:40:25.046Z,6.46
2018-03-28T04:41:25.426Z,6.48
2018-03-28T04:42:24.841Z,6.48
2018-03-28T04:43:25.238Z,6.49
2018-03-28T04:44:25.985Z,6.51
2018-03-28T04:45:46.029Z,6.51
2018-03-28T04:46:46.881Z,6.51
2018-03-28T04:48:07.076Z,6.51
2018-03-28T04:49:07.719Z,6.52
2018-03-28T04:50:08.116Z,6.52
2018-03-28T04:51:29.254Z,6.51
2018-03-28T04:52:30.011Z,6.51
2018-03-28T04:53:50.007Z,6.48
2018-03-28T04:54:50.759Z,6.46
2018-03-28T04:55:51.479Z,6.46
2018-03-28T04:56:51.310Z,6.48
2018-03-28T04:57:51.305Z,6.48
2018-03-28T04:58:51.236Z,6.48
2018-03-28T04:59:51.056Z,6.51
2018-03-28T05:00:51.108Z,6.48
2018-03-28T05:01:51.106Z,6.48
2018-03-28T05:02:54.384Z,6.48
2018-03-28T05:04:05.047Z,6.46
2018-03-28T05:04:56.322Z,6.46
2018-03-28T05:06:08.243Z,6.45
2018-03-28T05:06:57.506Z,6.45
2018-03-28T05:07:59.981Z,6.45
2018-03-28T05:09:20.287Z,6.44
2018-03-28T05:10:31.556Z,6.44
2018-03-28T05:11:22.169Z,6.42
2018-03-28T05:13:03.648Z,6.44
2018-03-28T05:14:25.470Z,6.44
2018-03-28T05:15:56.166Z,6.44
2018-03-28T05:16:57.279Z,6.44
2018-03-28T05:17:57.243Z,6.44
2018-03-28T05:18:58.047Z,6.44
2018-03-28T05:20:21.257Z,6.44
2018-03-28T05:21:27.373Z,6.45
2018-03-28T05:22:22.090Z,6.46
2018-03-28T05:23:21.698Z,6.45
2018-03-28T05:24:22.180Z,6.46
2018-03-28T05:25:21.941Z,6.45
2018-03-28T05:26:21.968Z,6.45
2018-03-28T05:27:21.863Z,6.45
2018-03-28T05:28:21.495Z,6.46
2018-03-28T05:29:21.082Z,6.46
2018-03-28T05:30:42.175Z,6.46
2018-03-28T05:31:42.577Z,6.46
2018-03-28T05:32:42.373Z,6.48
2018-03-28T05:34:23.923Z,6.48
2018-03-28T05:35:24.546Z,6.46
2018-03-28T05:36:28.688Z,6.45
2018-03-28T05:37:24.146Z,6.46
2018-03-28T05:38:28.223Z,6.46
2018-03-28T05:39:25.275Z,6.45
2018-03-28T05:40:24.967Z,6.45
2018-03-28T05:41:24.720Z,6.44
2018-03-28T05:42:24.511Z,6.42
2018-03-28T05:43:24.325Z,6.42
2018-03-28T05:44:24.218Z,6.41
2018-03-28T05:45:24.822Z,6.44
2018-03-28T05:46:24.529Z,6.44
2018-03-28T05:47:24.881Z,6.45
2018-03-28T05:48:24.572Z,6.46
2018-03-28T05:49:45.435Z,6.46
2018-03-28T05:51:26.957Z,6.51
2018-03-28T05:52:27.417Z,6.51
2018-03-28T05:53:49.357Z,6.54
2018-03-28T05:54:50.436Z,6.54
2018-03-28T05:55:49.946Z,6.54
2018-03-28T05:56:49.377Z,6.54
2018-03-28T05:57:50.010Z,6.57
2018-03-28T05:58:49.831Z,6.57
2018-03-28T06:00:30.781Z,6.62
2018-03-28T06:01:31.429Z,6.63
2018-03-28T06:02:31.322Z,6.63
2018-03-28T06:03:31.085Z,6.66
2018-03-28T06:04:32.009Z,6.69
2018-03-28T06:05:52.495Z,6.70
2018-03-28T06:06:53.430Z,6.70
2018-03-28T06:07:52.743Z,6.72
2018-03-28T06:08:52.616Z,6.75
2018-03-28T06:09:53.632Z,6.77
2018-03-28T06:10:53.029Z,6.75
2018-03-28T06:11:52.928Z,6.74
2018-03-28T06:12:52.546Z,6.74
2018-03-28T06:13:53.028Z,6.77
2018-03-28T06:15:12.749Z,6.78
2018-03-28T06:16:13.245Z,6.77
2018-03-28T06:17:14.367Z,6.75
2018-03-28T06:18:13.379Z,6.72
2018-03-28T06:19:34.668Z,6.74
2018-03-28T06:20:34.386Z,6.74
2018-03-28T06:21:56.264Z,6.74
2018-03-28T06:22:56.748Z,6.75
2018-03-28T06:23:56.393Z,6.77
2018-03-28T06:24:56.930Z,6.74
2018-03-28T06:25:56.997Z,6.74
2018-03-28T06:26:56.541Z,6.75
2018-03-28T06:27:56.023Z,6.77
2018-03-28T06:28:56.715Z,6.78
2018-03-28T06:29:56.229Z,6.78
2018-03-28T06:31:18.264Z,6.79
2018-03-28T06:32:19.235Z,6.81
2018-03-28T06:33:18.920Z,6.81
2018-03-28T06:34:18.673Z,6.84
2018-03-28T06:35:38.735Z,6.84
2018-03-28T06:36:39.455Z,6.84
2018-03-28T06:37:38.906Z,6.84
2018-03-28T06:38:39.806Z,6.85
2018-03-28T06:39:39.640Z,6.87
2018-03-28T06:40:39.478Z,6.89
2018-03-28T06:42:01.043Z,6.87
2018-03-28T06:44:20.181Z,6.87
2018-03-28T06:45:01.672Z,6.87
2018-03-28T06:46:01.969Z,6.87
2018-03-28T06:47:01.525Z,6.87
2018-03-28T06:48:02.258Z,6.85
2018-03-28T06:49:01.830Z,6.84
2018-03-28T06:50:01.838Z,6.81
2018-03-28T06:51:01.637Z,6.82
2018-03-28T06:52:02.287Z,6.84
2018-03-28T06:53:02.061Z,6.82
2018-03-28T06:54:01.836Z,6.84
2018-03-28T06:55:01.501Z,6.84
2018-03-28T06:56:01.412Z,6.85
2018-03-28T06:57:01.919Z,6.85
2018-03-28T06:58:22.925Z,6.82
2018-03-28T06:59:23.405Z,6.78
2018-03-28T07:00:24.128Z,6.75
2018-03-28T07:01:23.682Z,6.77
2018-03-28T07:02:23.769Z,6.75
2018-03-28T07:03:23.248Z,6.77
2018-03-28T07:04:24.165Z,6.78
2018-03-28T07:05:23.982Z,6.79
2018-03-28T07:06:23.509Z,6.81
2018-03-28T07:07:24.229Z,6.82
2018-03-28T07:08:23.969Z,6.79
2018-03-28T07:09:23.835Z,6.78
2018-03-28T07:10:53.318Z,6.79
2018-03-28T07:11:54.247Z,6.81
2018-03-28T07:12:54.050Z,6.81
2018-03-28T07:14:15.569Z,6.78
2018-03-28T07:15:16.450Z,6.78
2018-03-28T07:16:16.231Z,6.81
2018-03-28T07:17:15.755Z,6.84
2018-03-28T07:18:15.453Z,6.85
2018-03-28T07:19:37.508Z,6.89
2018-03-28T07:20:38.018Z,6.89
2018-03-28T07:21:37.675Z,6.89
2018-03-28T07:22:38.386Z,6.84
2018-03-28T07:23:59.072Z,6.79
2018-03-28T07:25:21.319Z,6.82
2018-03-28T07:26:22.204Z,6.82
2018-03-28T07:27:22.119Z,6.87
2018-03-28T07:28:22.013Z,6.93
2018-03-28T07:29:21.771Z,6.96
2018-03-28T07:30:42.965Z,7.00
2018-03-28T07:31:43.837Z,7.00
2018-03-28T07:32:43.763Z,7.00
2018-03-28T07:33:43.683Z,6.97
2018-03-28T07:34:43.526Z,6.95
2018-03-28T07:35:43.298Z,6.96
2018-03-28T07:36:44.001Z,6.92
2018-03-28T07:37:43.898Z,6.85
2018-03-28T07:38:43.665Z,6.82
2018-03-28T07:40:03.969Z,6.84
2018-03-28T07:41:45.621Z,6.78
2018-03-28T07:42:46.215Z,6.77
2018-03-28T07:43:46.022Z,6.78
2018-03-28T07:45:07.178Z,6.79
2018-03-28T07:46:07.888Z,6.85
2018-03-28T07:47:07.695Z,6.88
2018-03-28T07:48:07.470Z,6.93
2018-03-28T07:49:08.006Z,6.96
2018-03-28T07:50:07.536Z,7.03
2018-03-28T07:51:50.655Z,7.06
2018-03-28T07:52:34.948Z,7.13
2018-03-28T07:53:33.770Z,7.24
2018-03-28T07:54:29.109Z,7.28
2018-03-28T07:55:27.768Z,7.36
2018-03-28T07:56:28.052Z,7.47
2018-03-28T07:57:49.180Z,7.60
2018-03-28T07:58:50.797Z,7.66
2018-03-28T08:00:10.777Z,7.61
2018-03-28T08:01:11.347Z,7.63
2018-03-28T08:02:11.456Z,7.61
2018-03-28T08:03:32.846Z,7.66
2018-03-28T08:04:33.907Z,7.69
2018-03-28T08:05:33.030Z,7.77
2018-03-28T08:07:15.707Z,7.83
2018-03-28T08:08:17.137Z,7.94
2018-03-28T08:09:37.484Z,8.00
2018-03-28T08:10:38.431Z,8.06
2018-03-28T08:11:38.366Z,8.06
2018-03-28T08:12:39.029Z,7.97
2018-03-28T08:13:37.999Z,7.93
2018-03-28T08:14:37.537Z,7.85
2018-03-28T08:15:38.271Z,7.77
2018-03-28T08:16:37.765Z,7.79
2018-03-28T08:17:37.808Z,7.83
2018-03-28T08:18:37.639Z,7.82
2018-03-28T08:19:37.607Z,7.76
2018-03-28T08:20:39.220Z,7.70
2018-03-28T08:21:39.081Z,7.66
2018-03-28T08:22:37.697Z,7.66
2018-03-28T08:23:40.599Z,7.63
2018-03-28T08:24:39.071Z,7.57
2018-03-28T08:25:38.576Z,7.56
2018-03-28T08:26:39.798Z,7.56
2018-03-28T08:27:38.694Z,7.61
2018-03-28T08:28:39.422Z,7.73
2018-03-28T08:29:39.443Z,7.85
2018-03-28T08:30:39.567Z,7.88
2018-03-28T08:31:37.531Z,7.95
2018-03-28T08:32:40.697Z,7.98
2018-03-28T08:33:37.679Z,7.97
2018-03-28T08:34:39.493Z,7.97
2018-03-28T08:35:39.216Z,7.98
2018-03-28T08:36:39.295Z,8.03
2018-03-28T08:37:38.040Z,8.05
2018-03-28T08:38:37.976Z,8.05
2018-03-28T08:39:38.233Z,8.03
2018-03-28T08:40:38.097Z,8.06
2018-03-28T08:41:37.846Z,8.06
2018-03-28T08:42:37.513Z,8.01
2018-03-28T08:43:38.463Z,7.98
2018-03-28T08:44:38.162Z,7.91
2018-03-28T08:45:38.192Z,7.87
2018-03-28T08:46:37.928Z,7.83
2018-03-28T08:47:37.345Z,7.85
2018-03-28T08:48:39.596Z,7.87
2018-03-28T08:49:38.422Z,7.83
2018-03-28T08:50:39.701Z,7.82
2018-03-28T08:51:38.890Z,7.76
2018-03-28T08:52:39.655Z,7.76
2018-03-28T08:53:39.456Z,7.72
2018-03-28T08:54:40.948Z,7.69
2018-03-28T08:55:38.215Z,7.67
2018-03-28T08:56:37.650Z,7.67
2018-03-28T08:57:38.995Z,7.66
2018-03-28T08:58:38.557Z,7.66
2018-03-28T08:59:40.757Z,7.69
2018-03-28T09:00:40.058Z,7.63
2018-03-28T09:01:39.107Z,7.60
2018-03-28T09:02:39.037Z,7.56
2018-03-28T09:03:39.110Z,7.53
2018-03-28T09:04:37.625Z,7.51
2018-03-28T09:05:38.086Z,7.51
2018-03-28T09:06:38.312Z,7.50
2018-03-28T09:07:59.911Z,7.54
2018-03-28T09:09:00.684Z,7.58
2018-03-28T09:10:00.464Z,7.57
2018-03-28T09:11:00.219Z,7.60
2018-03-28T09:12:00.220Z,7.58
2018-03-28T09:12:59.873Z,7.66
2018-03-28T09:14:00.552Z,7.72
2018-03-28T09:15:42.136Z,7.83
2018-03-28T09:16:42.779Z,7.90
2018-03-28T09:18:23.749Z,8.06
2018-03-28T09:19:23.506Z,8.26
2018-03-28T09:20:24.553Z,8.45
2018-03-28T09:21:24.540Z,8.63
2018-03-28T09:22:24.806Z,8.99
2018-03-28T09:23:46.415Z,9.56
2018-03-28T09:24:47.465Z,9.98
2018-03-28T09:25:47.472Z,10.31
2018-03-28T09:26:46.525Z,10.63
2018-03-28T09:27:46.070Z,11.07
2018-03-28T09:29:08.536Z,11.43
2018-03-28T09:30:51.531Z,11.45
2018-03-28T09:31:51.344Z,11.48
2018-03-28T09:32:51.202Z,11.57
2018-03-28T09:33:51.891Z,11.90
2018-03-28T09:34:51.896Z,11.81
2018-03-28T09:35:51.485Z,11.70
2018-03-28T09:36:52.188Z,11.65
2018-03-28T09:37:51.741Z,11.68
2018-03-28T09:38:51.954Z,11.72
2018-03-28T09:39:51.710Z,11.77
2018-03-28T09:40:51.451Z,11.94
2018-03-28T09:41:51.408Z,12.27
2018-03-28T09:42:52.187Z,12.36
2018-03-28T09:43:52.248Z,12.46
2018-03-28T09:44:51.783Z,12.62
2018-03-28T09:45:51.530Z,12.61
2018-03-28T09:46:51.188Z,12.58
2018-03-28T09:47:51.826Z,12.32
2018-03-28T09:49:12.445Z,12.18
2018-03-28T09:50:12.490Z,12.10
2018-03-28T09:51:33.744Z,12.22
2018-03-28T09:52:33.455Z,12.28
2018-03-28T09:53:34.540Z,12.25
2018-03-28T09:54:34.794Z,12.27
2018-03-28T09:55:33.760Z,12.28
2018-03-28T09:56:33.734Z,12.17
2018-03-28T09:57:55.422Z,12.02
2018-03-28T09:58:56.671Z,11.80
2018-03-28T09:59:55.550Z,11.57
2018-03-28T10:01:16.350Z,11.26
2018-03-28T10:02:17.171Z,11.15
2018-03-28T10:03:17.237Z,10.97
2018-03-28T10:04:41.075Z,10.67
2018-03-28T10:05:39.065Z,10.46
2018-03-28T10:06:38.712Z,10.30
2018-03-28T10:07:38.835Z,10.13
2018-03-28T10:08:38.495Z,10.02
2018-03-28T10:09:39.123Z,9.94
2018-03-28T10:10:59.361Z,9.83
2018-03-28T10:12:00.509Z,9.79
2018-03-28T10:13:00.510Z,9.74
2018-03-28T10:14:22.906Z,9.73
2018-03-28T10:15:44.720Z,9.68
2018-03-28T10:16:44.529Z,9.66
2018-03-28T10:18:08.480Z,9.64
2018-03-28T10:19:10.007Z,9.64
2018-03-28T10:20:06.133Z,9.64
2018-03-28T10:21:27.411Z,9.69
2018-03-28T10:22:27.240Z,9.68
2018-03-28T10:23:28.462Z,9.69
2018-03-28T10:25:10.739Z,9.69
2018-03-28T10:26:12.401Z,9.69
2018-03-28T10:27:34.675Z,9.74
2018-03-28T10:28:36.095Z,9.79
2018-03-28T10:29:37.054Z,9.83
2018-03-28T10:30:35.058Z,9.89
2018-03-28T10:31:34.872Z,9.89
2018-03-28T10:32:35.994Z,9.95
2018-03-28T10:33:38.390Z,10.01
2018-03-28T10:34:35.223Z,10.07
2018-03-28T10:35:35.469Z,10.10
2018-03-28T10:36:36.836Z,10.17
2018-03-28T10:37:35.304Z,10.20
2018-03-28T10:38:34.957Z,10.26
2018-03-28T10:39:34.926Z,10.33
2018-03-28T10:40:35.009Z,10.40
2018-03-28T10:41:35.624Z,10.38
2018-03-28T10:42:35.310Z,10.41
2018-03-28T10:43:36.454Z,10.49
2018-03-28T10:44:35.537Z,10.67
2018-03-28T10:45:35.987Z,10.89
2018-03-28T10:46:34.918Z,11.02
2018-03-28T10:47:35.028Z,11.22
2018-03-28T10:48:56.382Z,11.35
2018-03-28T10:49:57.701Z,11.51
2018-03-28T10:50:56.657Z,11.69
2018-03-28T10:51:56.478Z,11.72
2018-03-28T10:52:56.821Z,11.80
2018-03-28T10:53:56.744Z,11.87
2018-03-28T10:54:56.877Z,11.90
2018-03-28T10:55:57.274Z,12.02
2018-03-28T10:56:57.278Z,12.15
2018-03-28T10:57:57.145Z,12.29
2018-03-28T10:58:57.112Z,12.53
2018-03-28T10:59:56.978Z,12.67
2018-03-28T11:00:57.063Z,12.80
2018-03-28T11:01:57.342Z,12.80
2018-03-28T11:02:57.401Z,12.70
2018-03-28T11:04:18.803Z,12.60
2018-03-28T11:05:18.923Z,12.49
2018-03-28T11:06:18.954Z,12.28
2018-03-28T11:07:19.092Z,12.07
2018-03-28T11:08:19.177Z,11.95
2018-03-28T11:09:19.071Z,11.87
2018-03-28T11:10:18.920Z,11.90
2018-03-28T11:11:18.784Z,11.94
2018-03-28T11:12:40.805Z,12.07
2018-03-28T11:13:42.080Z,12.13
2018-03-28T11:15:01.556Z,12.27
2018-03-28T11:16:01.689Z,12.43
2018-03-28T11:18:57.792Z,12.21
2018-03-28T11:19:57.628Z,12.09
2018-03-28T11:21:40.379Z,11.94
2018-03-28T11:22:40.030Z,11.84
2018-03-28T11:23:41.273Z,11.81
2018-03-28T11:24:40.335Z,11.80
2018-03-28T11:25:40.126Z,11.77
2018-03-28T11:27:02.450Z,11.99
2018-03-28T11:28:16.099Z,12.13
2018-03-28T11:29:03.160Z,12.24
2018-03-28T11:30:03.042Z,12.36
2018-03-28T11:31:02.864Z,12.47
2018-03-28T11:32:02.557Z,12.43
2018-03-28T11:33:03.504Z,12.43
2018-03-28T11:34:03.488Z,12.37
2018-03-28T11:35:03.309Z,12.27
2018-03-28T11:36:02.982Z,12.18
2018-03-28T11:37:43.878Z,12.22
2018-03-28T11:38:44.975Z,12.22
2018-03-28T11:39:44.928Z,12.22
2018-03-28T11:40:44.870Z,12.18
2018-03-28T11:41:44.900Z,12.10
2018-03-28T11:42:44.676Z,12.00
2018-03-28T11:43:44.752Z,12.00
2018-03-28T11:44:44.639Z,11.90
2018-03-28T11:45:44.829Z,11.77
2018-03-28T11:47:07.130Z,11.55
2018-03-28T11:48:07.244Z,11.41
2018-03-28T11:49:07.186Z,11.37
2018-03-28T11:50:07.184Z,11.37
2018-03-28T11:51:52.082Z,11.41
2018-03-28T11:52:53.095Z,11.35
2018-03-28T11:54:14.867Z,11.30
2018-03-28T11:55:14.665Z,11.32
2018-03-28T11:56:15.077Z,11.26
2018-03-28T11:57:14.319Z,11.29
2018-03-28T11:58:56.170Z,11.27
2018-03-28T11:59:57.261Z,11.23
2018-03-28T12:00:56.038Z,11.22
2018-03-28T12:01:57.102Z,11.23
2018-03-28T12:02:55.992Z,11.22
2018-03-28T12:03:56.842Z,11.22
2018-03-28T12:04:56.725Z,11.22
2018-03-28T12:06:17.526Z,11.26
2018-03-28T12:07:18.662Z,11.26
2018-03-28T12:08:18.340Z,11.23
2018-03-28T12:09:18.923Z,11.17
2018-03-28T12:10:39.650Z,11.11
2018-03-28T12:11:40.858Z,11.07
2018-03-28T12:12:40.978Z,11.04
2018-03-28T12:13:39.802Z,10.96
2018-03-28T12:14:40.813Z,10.92
2018-03-28T12:15:39.628Z,10.90
2018-03-28T12:16:40.389Z,10.84
2018-03-28T12:18:01.844Z,10.84
2018-03-28T12:19:01.653Z,10.79
2018-03-28T12:20:02.346Z,10.79
2018-03-28T12:21:23.546Z,10.72
2018-03-28T12:22:25.004Z,10.63
2018-03-28T12:23:24.237Z,10.59
2018-03-28T12:24:24.026Z,10.57
2018-03-28T12:25:23.680Z,10.60
2018-03-28T12:26:24.683Z,10.61
2018-03-28T12:27:24.470Z,10.57
2018-03-28T12:28:24.884Z,10.49
2018-03-28T12:29:23.712Z,10.44
2018-03-28T12:30:24.994Z,10.46
2018-03-28T12:31:24.247Z,10.40
2018-03-28T12:32:46.188Z,10.28
2018-03-28T12:33:45.741Z,10.17
2018-03-28T12:34:47.538Z,10.16
2018-03-28T12:35:47.077Z,10.15
2018-03-28T12:37:07.781Z,10.12
2018-03-28T12:38:07.601Z,10.10
2018-03-28T12:39:29.743Z,10.07
2018-03-28T12:40:29.396Z,10.10
2018-03-28T12:41:30.704Z,10.05
2018-03-28T12:42:29.874Z,10.04
2018-03-28T12:43:30.097Z,10.02
2018-03-28T12:44:30.114Z,10.01
2018-03-28T12:45:30.136Z,10.02
2018-03-28T12:46:30.238Z,10.01
2018-03-28T12:47:30.740Z,10.01
2018-03-28T12:48:29.996Z,10.04
2018-03-28T12:49:30.039Z,10.09
2018-03-28T12:50:29.996Z,10.15
2018-03-28T12:51:30.390Z,10.17
2018-03-28T12:52:51.542Z,10.25
2018-03-28T12:54:14.133Z,10.30
2018-03-28T12:55:14.145Z,10.33
2018-03-28T12:56:14.324Z,10.38
2018-03-28T12:57:14.595Z,10.40
2018-03-28T12:58:14.680Z,10.46
2018-03-28T12:59:57.159Z,10.57
2018-03-28T13:00:57.320Z,10.60
2018-03-28T13:01:57.588Z,10.67
2018-03-28T13:02:57.808Z,10.67
2018-03-28T13:04:18.607Z,10.72
2018-03-28T13:05:41.584Z,10.74
2018-03-28T13:06:42.802Z,10.76
2018-03-28T13:08:02.781Z,10.79
2018-03-28T13:09:04.259Z,10.81
2018-03-28T13:10:02.950Z,10.84
2018-03-28T13:11:03.856Z,10.84
2018-03-28T13:12:04.182Z,10.84
2018-03-28T13:13:02.965Z,10.82
2018-03-28T13:14:03.215Z,10.86
2018-03-28T13:15:03.584Z,10.87
2018-03-28T13:16:04.046Z,10.90
2018-03-28T13:17:03.072Z,10.93
2018-03-28T13:18:03.256Z,10.93
2018-03-28T13:19:46.373Z,10.84
2018-03-28T13:20:46.206Z,10.76
2018-03-28T13:21:46.616Z,10.64
2018-03-28T13:23:07.299Z,10.54
2018-03-28T13:24:08.745Z,10.48
2018-03-28T13:25:07.749Z,10.40
2018-03-28T13:26:07.930Z,10.37
2018-03-28T13:27:07.877Z,10.37
2018-03-28T13:28:07.818Z,10.34
2018-03-28T13:29:29.001Z,10.28
2018-03-28T13:30:29.732Z,10.25
2018-03-28T13:31:30.112Z,10.23
2018-03-28T13:32:29.019Z,10.22
2018-03-28T13:33:28.823Z,10.22
2018-03-28T13:34:30.081Z,10.22
2018-03-28T13:35:29.078Z,10.22
2018-03-28T13:36:50.991Z,10.22
2018-03-28T13:37:50.908Z,10.26
2018-03-28T13:39:12.226Z,10.28
2018-03-28T13:40:33.615Z,10.30
2018-03-28T13:41:34.803Z,10.26
2018-03-28T13:42:34.911Z,10.22
2018-03-28T13:43:34.887Z,10.22
2018-03-28T13:44:33.983Z,10.20
2018-03-28T13:45:55.902Z,10.12
2018-03-28T13:46:57.037Z,10.09
2018-03-28T13:47:56.330Z,10.09
2018-03-28T13:48:56.147Z,10.04
2018-03-28T13:49:56.224Z,10.01
2018-03-28T13:51:16.628Z,9.95
2018-03-28T13:52:17.570Z,9.89
2018-03-28T13:53:17.570Z,9.86
2018-03-28T13:54:17.126Z,9.82
2018-03-28T13:55:16.699Z,9.80
2018-03-28T13:56:37.773Z,9.74
2018-03-28T13:57:38.787Z,9.65
2018-03-28T13:58:38.476Z,9.59
2018-03-28T13:59:38.301Z,9.55
2018-03-28T14:00:38.440Z,9.51
2018-03-28T14:01:38.316Z,9.48
2018-03-28T14:02:38.231Z,9.44
2018-03-28T14:03:38.225Z,9.43
2018-03-28T14:04:37.926Z,9.40
2018-03-28T14:05:37.757Z,9.37
2018-03-28T14:06:38.949Z,9.31
2018-03-28T14:08:20.767Z,9.19
2018-03-28T14:09:21.111Z,9.11
2018-03-28T14:10:20.882Z,9.02
2018-03-28T14:11:42.378Z,8.92
2018-03-28T14:12:42.300Z,8.84
2018-03-28T14:13:41.874Z,8.74
2018-03-28T14:14:42.661Z,8.70
2018-03-28T14:15:42.821Z,8.69
2018-03-28T14:17:25.417Z,8.66
2018-03-28T14:18:26.536Z,8.61
2018-03-28T14:19:47.704Z,8.46
2018-03-28T14:20:49.001Z,8.41
2018-03-28T14:21:48.593Z,8.38
2018-03-28T14:22:48.610Z,8.36
2018-03-28T14:23:48.866Z,8.30
2018-03-28T14:24:49.182Z,8.26
2018-03-28T14:25:47.984Z,8.23